Time;durP1;ratioP1;P1;durP2;ratioP2;P2;SDS_P1;SDS_P2;PMS_P1;PMS_P2;Temp;Humidity;BMP_temperature;BMP_pressure;BME280_temperature;BME280_humidity;BME280_pressure;Samples;Min_cycle;Max_cycle;Signal;HPM_P1;HPM_P2
2022/07/16 00:03:53;;;;;;;1.00;0.45;;;16.90;99.90;;;;;;5033890;28;20053;-45
2022/07/16 00:06:19;;;;;;;1.52;0.63;;;16.90;99.90;;;;;;5035072;28;20117;-46
2022/07/16 00:08:44;;;;;;;2.35;0.85;;;16.90;99.90;;;;;;5044152;28;20680;-48
2022/07/16 00:11:10;;;;;;;1.88;0.70;;;16.90;99.90;;;;;;5037914;28;20075;-50
2022/07/16 00:13:36;;;;;;;2.42;0.73;;;16.90;99.90;;;;;;5045810;28;20049;-52
2022/07/16 00:16:02;;;;;;;1.08;0.85;;;16.90;99.90;;;;;;5033258;28;20047;-50
2022/07/16 00:21:12;;;;;;;2.25;1.23;;;16.90;99.90;;;;;;5032045;28;20045;-49
2022/07/16 00:23:37;;;;;;;2.65;0.85;;;16.90;99.90;;;;;;5043524;28;20116;-51
2022/07/16 00:26:03;;;;;;;1.35;0.73;;;16.80;99.90;;;;;;5049140;28;20125;-50
2022/07/16 00:28:29;;;;;;;1.50;0.70;;;16.80;99.90;;;;;;5044564;28;20032;-51
2022/07/16 00:30:54;;;;;;;1.88;0.88;;;16.80;99.90;;;;;;5049462;28;20044;-49
2022/07/16 00:33:20;;;;;;;1.77;0.52;;;16.80;99.90;;;;;;5036783;28;20561;-50
2022/07/16 00:35:45;;;;;;;1.60;0.88;;;16.80;99.90;;;;;;5029035;28;20495;-49
2022/07/16 00:38:12;;;;;;;2.38;1.10;;;16.70;99.90;;;;;;5042984;28;20074;-52
2022/07/16 00:40:38;;;;;;;1.40;0.98;;;16.70;99.90;;;;;;5029675;28;20037;-49
2022/07/16 00:43:03;;;;;;;1.45;0.70;;;16.80;99.90;;;;;;5036475;28;20041;-52
2022/07/16 00:45:29;;;;;;;1.08;0.93;;;16.70;99.90;;;;;;5048114;28;20044;-49
2022/07/16 00:47:55;;;;;;;1.92;0.80;;;16.70;99.90;;;;;;5043470;28;20453;-48
2022/07/16 00:50:20;;;;;;;4.93;1.13;;;16.70;99.90;;;;;;5046339;28;20218;-49
2022/07/16 00:52:46;;;;;;;1.30;0.93;;;16.70;99.90;;;;;;5044281;28;20068;-47
2022/07/16 00:55:12;;;;;;;1.40;1.00;;;16.70;99.90;;;;;;5029134;28;20034;-52
2022/07/16 00:57:37;;;;;;;2.95;1.80;;;16.70;99.90;;;;;;5030194;28;20305;-49
2022/07/16 01:00:04;;;;;;;3.72;1.10;;;16.70;99.90;;;;;;5037338;28;20449;-51
2022/07/16 01:02:30;;;;;;;3.83;1.20;;;16.70;99.90;;;;;;5047434;28;20044;-49
2022/07/16 01:04:55;;;;;;;2.53;1.00;;;16.60;99.90;;;;;;5038381;28;20155;-52
2022/07/16 01:07:22;;;;;;;1.55;0.93;;;16.70;99.90;;;;;;5047256;28;20111;-50
2022/07/16 01:09:48;;;;;;;1.75;0.90;;;16.60;99.90;;;;;;5041848;28;20059;-52
2022/07/16 01:12:15;;;;;;;0.88;0.70;;;16.60;99.90;;;;;;5029334;28;20749;-52
2022/07/16 01:14:42;;;;;;;2.45;1.60;;;16.60;99.90;;;;;;5037390;28;20040;-52
2022/07/16 01:17:08;;;;;;;2.88;1.00;;;16.60;99.90;;;;;;5052032;28;20394;-50
2022/07/16 01:19:33;;;;;;;2.15;1.00;;;16.60;99.90;;;;;;5038658;28;20041;-50
2022/07/16 01:21:59;;;;;;;1.75;1.10;;;16.60;99.90;;;;;;5047091;28;20041;-48
2022/07/16 01:24:24;;;;;;;3.50;1.42;;;16.60;99.90;;;;;;5046112;28;20037;-51
2022/07/16 01:26:50;;;;;;;2.83;1.23;;;16.60;99.90;;;;;;5050557;28;20045;-51
2022/07/16 01:29:15;;;;;;;2.33;1.48;;;16.60;99.90;;;;;;5048716;28;20064;-50
2022/07/16 01:31:41;;;;;;;2.03;1.00;;;16.60;99.90;;;;;;5037196;28;20045;-51
2022/07/16 01:34:25;;;;;;;4.07;1.27;;;16.60;99.90;;;;;;5046001;28;20490;-48
2022/07/16 01:36:59;;;;;;;1.67;1.10;;;16.60;99.90;;;;;;5032410;28;20033;-49
2022/07/16 01:39:27;;;;;;;3.92;1.40;;;16.60;99.90;;;;;;5037590;28;20033;-49
2022/07/16 01:41:55;;;;;;;1.52;0.95;;;16.60;99.90;;;;;;5035978;28;20037;-51
2022/07/16 01:44:23;;;;;;;1.38;0.85;;;16.60;99.90;;;;;;5049053;28;20502;-49
2022/07/16 01:46:49;;;;;;;4.28;1.00;;;16.60;99.90;;;;;;5043469;28;20419;-49
2022/07/16 01:49:15;;;;;;;2.92;1.20;;;16.60;99.90;;;;;;5033303;28;20285;-52
2022/07/16 01:51:40;;;;;;;3.58;1.08;;;16.60;99.90;;;;;;5045062;28;20045;-47
2022/07/16 01:54:06;;;;;;;4.53;1.27;;;16.60;99.90;;;;;;5048226;28;20064;-51
2022/07/16 01:56:32;;;;;;;3.58;1.20;;;16.60;99.90;;;;;;5032402;28;20128;-47
2022/07/16 01:58:57;;;;;;;1.67;1.23;;;16.60;99.90;;;;;;5031796;28;20037;-45
2022/07/16 02:01:23;;;;;;;3.85;1.10;;;16.60;99.90;;;;;;5033248;28;20136;-49
2022/07/16 02:03:48;;;;;;;2.33;1.20;;;16.60;99.90;;;;;;5049409;28;20594;-49
2022/07/16 02:06:14;;;;;;;4.93;2.15;;;16.60;99.90;;;;;;5036268;28;20064;-48
2022/07/16 02:08:39;;;;;;;2.60;1.27;;;16.60;99.90;;;;;;5021930;28;20127;-50
2022/07/16 02:11:05;;;;;;;6.18;1.17;;;16.60;99.90;;;;;;5042291;28;20041;-52
2022/07/16 02:13:30;;;;;;;5.00;1.23;;;16.60;99.90;;;;;;5031379;28;20383;-48
2022/07/16 02:15:56;;;;;;;2.17;1.00;;;16.50;99.90;;;;;;5042546;28;20137;-50
2022/07/16 02:18:22;;;;;;;3.20;1.60;;;16.50;99.90;;;;;;5049000;28;20447;-46
2022/07/16 02:20:47;;;;;;;2.67;1.17;;;16.50;99.90;;;;;;5044412;28;20088;-46
2022/07/16 02:23:13;;;;;;;1.40;0.90;;;16.50;99.90;;;;;;5032212;28;20123;-52
2022/07/16 02:25:40;;;;;;;3.88;1.55;;;16.50;99.90;;;;;;5049153;28;20453;-49
2022/07/16 02:28:06;;;;;;;2.05;1.77;;;16.50;99.90;;;;;;5051323;28;20067;-50
2022/07/16 02:30:32;;;;;;;2.13;1.60;;;16.50;99.90;;;;;;5038374;28;20487;-47
2022/07/16 02:32:57;;;;;;;1.95;1.10;;;16.50;99.90;;;;;;5029572;28;20068;-47
2022/07/16 02:35:23;;;;;;;3.53;1.30;;;16.50;99.90;;;;;;5034551;28;20068;-48
2022/07/16 02:37:49;;;;;;;2.88;1.55;;;16.50;99.90;;;;;;5041875;28;20037;-49
2022/07/16 02:40:14;;;;;;;2.45;1.40;;;16.50;99.90;;;;;;5033737;28;20049;-52
2022/07/16 02:42:40;;;;;;;3.65;1.45;;;16.50;99.90;;;;;;5036786;28;20403;-48
2022/07/16 02:45:07;;;;;;;1.65;1.02;;;16.50;99.90;;;;;;5031312;28;20116;-47
2022/07/16 02:47:34;;;;;;;2.92;1.58;;;16.50;99.90;;;;;;5051094;28;20045;-52
2022/07/16 02:49:59;;;;;;;2.72;1.23;;;16.60;99.90;;;;;;5050132;28;20056;-45
2022/07/16 02:52:25;;;;;;;3.58;1.70;;;16.60;99.90;;;;;;5049635;28;20041;-47
2022/07/16 02:54:51;;;;;;;6.30;1.73;;;16.60;99.90;;;;;;5035458;28;20037;-50
2022/07/16 02:57:16;;;;;;;5.30;1.75;;;16.60;99.90;;;;;;5047198;28;20119;-50
2022/07/16 02:59:42;;;;;;;3.80;1.88;;;16.60;99.90;;;;;;5037795;28;20399;-51
2022/07/16 03:02:07;;;;;;;2.88;1.70;;;16.60;99.90;;;;;;5032326;28;20060;-52
2022/07/16 03:04:33;;;;;;;3.17;1.10;;;16.60;99.90;;;;;;5029945;28;20130;-48
2022/07/16 03:06:58;;;;;;;3.97;1.40;;;16.60;99.90;;;;;;5042607;28;20044;-49
2022/07/16 03:09:24;;;;;;;1.50;1.40;;;16.60;99.90;;;;;;5051346;28;20037;-47
2022/07/16 03:11:50;;;;;;;2.63;1.40;;;16.60;99.90;;;;;;5048033;28;20824;-50
2022/07/16 03:14:15;;;;;;;2.42;1.15;;;16.60;99.90;;;;;;5050248;28;20051;-52
2022/07/16 03:16:41;;;;;;;1.92;1.27;;;16.60;99.90;;;;;;5040379;28;20095;-52
2022/07/16 03:19:06;;;;;;;4.40;1.58;;;16.50;99.90;;;;;;5044201;28;20037;-48
2022/07/16 03:21:32;;;;;;;2.97;1.42;;;16.50;99.90;;;;;;5043272;28;20037;-49
2022/07/16 03:23:58;;;;;;;4.25;1.42;;;16.50;99.90;;;;;;5029904;28;20068;-50
2022/07/16 03:26:23;;;;;;;2.25;1.10;;;16.50;99.90;;;;;;5032762;28;20146;-47
2022/07/16 03:28:49;;;;;;;2.28;1.50;;;16.40;99.90;;;;;;5030838;28;20049;-52
2022/07/16 03:31:17;;;;;;;2.28;1.73;;;16.40;99.90;;;;;;5031707;28;20502;-50
2022/07/16 03:33:43;;;;;;;3.83;1.27;;;16.40;99.90;;;;;;5037481;28;20043;-50
2022/07/16 03:36:08;;;;;;;2.83;1.40;;;16.40;99.90;;;;;;5038093;28;20471;-52
2022/07/16 03:41:18;;;;;;;4.45;1.10;;;16.30;99.90;;;;;;5046884;28;20041;-49
2022/07/16 03:43:43;;;;;;;3.40;1.08;;;16.30;99.90;;;;;;5035476;28;20041;-47
2022/07/16 03:46:12;;;;;;;1.67;1.17;;;16.30;99.90;;;;;;5045613;28;20072;-48
2022/07/16 03:48:39;;;;;;;5.28;1.40;;;16.30;99.90;;;;;;5032268;28;20041;-50
2022/07/16 03:51:06;;;;;;;3.20;1.17;;;16.30;99.90;;;;;;5030446;28;20400;-47
2022/07/16 03:53:35;;;;;;;5.38;0.90;;;16.20;99.90;;;;;;5046811;28;20103;-49
2022/07/16 03:56:01;;;;;;;5.30;1.13;;;16.20;99.90;;;;;;5029492;28;20059;-47
2022/07/16 03:58:27;;;;;;;2.60;0.80;;;16.20;99.90;;;;;;5038139;28;20542;-50
2022/07/16 04:00:53;;;;;;;;;;;16.20;99.90;;;;;;5031923;28;20325;-49
2022/07/16 04:03:18;;;;;;;5.20;0.70;;;16.20;99.90;;;;;;5032383;28;19968;-52
2022/07/16 04:05:44;;;;;;;2.17;1.02;;;16.20;99.90;;;;;;5041578;28;20044;-50
2022/07/16 04:08:10;;;;;;;3.08;0.88;;;16.20;99.90;;;;;;5046318;28;20041;-54
2022/07/16 04:10:35;;;;;;;7.93;1.10;;;16.30;99.90;;;;;;5048704;28;20082;-52
2022/07/16 04:13:01;;;;;;;4.93;0.77;;;16.20;99.90;;;;;;5039647;28;20063;-48
2022/07/16 04:15:27;;;;;;;4.75;0.85;;;16.30;99.90;;;;;;5048208;28;20118;-46
2022/07/16 04:17:52;;;;;;;1.85;0.45;;;16.20;99.90;;;;;;5047906;28;20138;-50
2022/07/16 04:20:18;;;;;;;4.93;0.80;;;16.20;99.90;;;;;;5041547;28;20037;-47
2022/07/16 04:22:44;;;;;;;3.72;0.60;;;16.20;99.90;;;;;;5039107;28;20072;-49
2022/07/16 04:25:09;;;;;;;2.80;0.60;;;16.20;99.90;;;;;;5048399;28;20233;-48
2022/07/16 04:27:35;;;;;;;4.57;0.65;;;16.20;99.90;;;;;;5030602;28;20503;-48
2022/07/16 04:30:01;;;;;;;3.40;0.60;;;16.20;99.90;;;;;;5042685;28;20498;-46
2022/07/16 04:32:26;;;;;;;2.00;0.90;;;16.20;99.90;;;;;;5041961;28;20477;-47
2022/07/16 04:34:52;;;;;;;2.55;0.50;;;16.20;99.90;;;;;;5028360;28;20065;-52
2022/07/16 04:37:18;;;;;;;3.10;0.50;;;16.20;99.90;;;;;;5039011;28;20037;-47
2022/07/16 04:39:43;;;;;;;2.63;1.13;;;16.20;99.90;;;;;;5048740;28;20041;-48
2022/07/16 04:42:09;;;;;;;4.95;0.88;;;16.20;99.90;;;;;;5043859;28;20120;-47
2022/07/16 04:44:34;;;;;;;6.20;0.40;;;16.20;99.90;;;;;;5028572;28;20415;-50
2022/07/16 04:47:00;;;;;;;2.55;0.95;;;16.20;99.90;;;;;;5037299;28;20045;-51
2022/07/16 04:49:25;;;;;;;2.20;0.50;;;16.20;99.90;;;;;;5050666;28;20123;-46
2022/07/16 04:51:51;;;;;;;2.92;0.50;;;16.10;99.90;;;;;;5041501;28;20088;-46
2022/07/16 04:54:16;;;;;;;6.18;0.98;;;16.20;99.90;;;;;;5051784;28;20512;-51
2022/07/16 04:56:42;;;;;;;2.92;0.50;;;16.10;99.90;;;;;;5052943;28;20406;-48
2022/07/16 04:59:08;;;;;;;3.08;0.70;;;16.10;99.90;;;;;;5051603;28;20509;-50
2022/07/16 05:01:33;;;;;;;1.98;0.60;;;16.20;99.90;;;;;;5048438;28;20394;-46
2022/07/16 05:03:59;;;;;;;2.95;0.70;;;16.20;99.90;;;;;;5052743;28;20044;-47
2022/07/16 05:06:24;;;;;;;4.53;0.70;;;16.20;99.90;;;;;;5047840;28;20071;-48
2022/07/16 05:08:50;;;;;;;3.22;0.95;;;16.20;99.90;;;;;;5033050;28;20045;-49
2022/07/16 05:11:16;;;;;;;1.90;0.40;;;16.20;99.90;;;;;;5039056;28;20052;-47
2022/07/16 05:13:41;;;;;;;2.67;0.93;;;16.20;99.90;;;;;;5032212;28;20041;-48
2022/07/16 05:16:07;;;;;;;2.92;0.68;;;16.20;99.90;;;;;;5038941;28;20504;-46
2022/07/16 05:18:32;;;;;;;2.10;0.80;;;16.30;99.90;;;;;;5050837;28;20040;-52
2022/07/16 05:20:58;;;;;;;6.63;0.75;;;16.30;99.90;;;;;;5047273;28;20414;-50
2022/07/16 05:23:23;;;;;;;4.00;0.50;;;16.40;99.90;;;;;;5032416;28;20037;-51
2022/07/16 05:25:49;;;;;;;5.30;0.80;;;16.40;99.90;;;;;;5036507;28;20123;-52
2022/07/16 05:28:14;;;;;;;9.40;1.20;;;16.40;99.90;;;;;;5052490;28;20068;-47
2022/07/16 05:30:40;;;;;;;8.68;0.98;;;16.50;99.90;;;;;;5034552;28;20051;-48
2022/07/16 05:33:05;;;;;;;4.75;0.60;;;16.50;99.90;;;;;;5042478;28;20041;-49
2022/07/16 05:35:31;;;;;;;3.20;0.57;;;16.50;99.90;;;;;;5050823;28;20391;-52
2022/07/16 05:37:57;;;;;;;2.58;0.80;;;16.50;99.90;;;;;;5032545;28;20490;-50
2022/07/16 05:40:22;;;;;;;4.32;0.40;;;16.60;99.90;;;;;;5036510;28;20494;-48
2022/07/16 05:42:48;;;;;;;2.85;0.47;;;16.60;99.90;;;;;;5037724;28;20037;-50
2022/07/16 05:45:13;;;;;;;5.93;1.10;;;16.60;99.90;;;;;;5041680;28;20037;-49
2022/07/16 05:47:39;;;;;;;4.68;0.70;;;16.70;99.90;;;;;;5033117;28;20199;-49
2022/07/16 05:50:06;;;;;;;2.72;0.82;;;16.70;99.90;;;;;;5031475;28;20041;-49
2022/07/16 05:52:31;;;;;;;3.25;0.55;;;16.70;99.90;;;;;;5036195;28;20377;-50
2022/07/16 05:54:57;;;;;;;2.50;0.52;;;16.80;99.90;;;;;;5046072;28;20124;-50
2022/07/16 05:57:22;;;;;;;4.75;0.75;;;16.80;99.90;;;;;;5047815;28;20513;-50
2022/07/16 05:59:48;;;;;;;3.53;0.70;;;16.80;99.90;;;;;;5031946;28;20044;-48
2022/07/16 06:02:14;;;;;;;3.90;0.50;;;16.80;99.90;;;;;;5046450;28;20045;-47
2022/07/16 06:04:39;;;;;;;11.85;1.10;;;16.80;99.90;;;;;;5050781;28;20430;-48
2022/07/16 06:07:05;;;;;;;10.15;0.88;;;16.80;99.90;;;;;;5049873;28;20131;-52
2022/07/16 06:09:30;;;;;;;7.70;0.63;;;16.70;99.90;;;;;;5046452;28;20041;-52
2022/07/16 06:11:56;;;;;;;1.70;0.45;;;16.70;99.90;;;;;;5037055;28;20130;-50
2022/07/16 06:14:21;;;;;;;3.85;0.70;;;16.80;99.90;;;;;;5050526;28;20510;-49
2022/07/16 06:16:48;;;;;;;6.75;0.50;;;16.70;99.90;;;;;;5049298;28;20043;-48
2022/07/16 06:19:13;;;;;;;;;;;16.70;99.90;;;;;;5052095;28;20444;-50
2022/07/16 06:21:39;;;;;;;4.68;0.40;;;16.60;99.90;;;;;;5045402;28;20036;-49
2022/07/16 06:24:05;;;;;;;2.95;0.68;;;16.60;99.90;;;;;;5050066;28;20051;-46
2022/07/16 06:26:30;;;;;;;3.10;0.60;;;16.60;99.90;;;;;;5048964;28;20083;-46
2022/07/16 06:28:56;;;;;;;3.67;0.40;;;16.50;99.90;;;;;;5043095;28;20353;-46
2022/07/16 06:31:21;;;;;;;3.85;0.50;;;16.50;99.90;;;;;;5033849;28;20526;-47
2022/07/16 06:33:47;;;;;;;10.52;1.02;;;16.50;99.90;;;;;;5038180;28;20495;-47
2022/07/16 06:36:12;;;;;;;3.15;0.43;;;16.60;99.90;;;;;;5031692;28;20045;-48
2022/07/16 06:38:38;;;;;;;6.22;0.30;;;16.60;99.90;;;;;;5039468;28;20499;-49
2022/07/16 06:41:04;;;;;;;12.98;1.05;;;16.70;99.90;;;;;;5038266;28;20037;-47
2022/07/16 06:43:29;;;;;;;3.55;0.85;;;16.70;99.90;;;;;;5039385;28;20120;-46
2022/07/16 06:45:55;;;;;;;4.10;0.55;;;16.60;99.90;;;;;;5039542;28;20043;-50
2022/07/16 06:48:20;;;;;;;4.93;0.40;;;16.70;99.90;;;;;;5049692;28;20406;-47
2022/07/16 06:50:46;;;;;;;3.22;0.47;;;16.60;99.90;;;;;;5047727;28;20048;-51
2022/07/16 06:53:12;;;;;;;6.85;0.32;;;16.60;99.90;;;;;;5034287;28;20044;-49
2022/07/16 06:55:37;;;;;;;3.22;0.43;;;16.60;99.90;;;;;;5048723;28;20036;-46
2022/07/16 06:58:03;;;;;;;3.28;0.30;;;16.60;99.90;;;;;;5037812;28;20520;-47
2022/07/16 07:00:28;;;;;;;16.58;1.25;;;16.70;99.90;;;;;;5030998;28;20064;-46
2022/07/16 07:02:54;;;;;;;3.75;0.38;;;16.70;99.90;;;;;;5042101;28;20501;-50
2022/07/16 07:05:20;;;;;;;3.78;0.98;;;16.80;99.90;;;;;;5039270;28;20128;-49
2022/07/16 07:07:45;;;;;;;4.80;0.40;;;16.80;99.90;;;;;;5032112;28;20041;-47
2022/07/16 07:10:12;;;;;;;9.50;0.80;;;16.90;99.90;;;;;;5035991;28;20052;-47
2022/07/16 07:12:38;;;;;;;4.03;0.40;;;16.90;99.90;;;;;;5034663;28;20371;-47
2022/07/16 07:15:05;;;;;;;2.67;0.30;;;17.00;99.90;;;;;;5036472;28;20110;-49
2022/07/16 07:17:30;;;;;;;2.83;0.35;;;16.90;99.90;;;;;;5033760;28;20079;-47
2022/07/16 07:19:56;;;;;;;7.07;0.50;;;17.00;99.90;;;;;;5047702;28;20399;-48
2022/07/16 07:22:22;;;;;;;3.20;0.40;;;17.10;99.90;;;;;;5038917;28;20033;-47
2022/07/16 07:24:49;;;;;;;5.78;0.30;;;17.20;99.90;;;;;;5048942;28;20410;-46
2022/07/16 07:27:16;;;;;;;2.78;0.63;;;17.30;99.90;;;;;;5040579;28;20045;-51
2022/07/16 07:29:42;;;;;;;2.65;0.40;;;17.30;99.90;;;;;;5048494;28;20037;-50
2022/07/16 07:32:07;;;;;;;6.68;0.45;;;17.40;99.90;;;;;;5050301;28;20086;-49
2022/07/16 07:34:33;;;;;;;4.15;0.65;;;17.50;99.90;;;;;;5049743;28;20047;-47
2022/07/16 07:36:58;;;;;;;4.93;0.20;;;17.50;99.60;;;;;;5042715;28;20491;-47
2022/07/16 07:39:24;;;;;;;3.22;0.28;;;17.50;99.80;;;;;;5030445;28;20041;-45
2022/07/16 07:41:49;;;;;;;6.45;0.50;;;17.60;99.50;;;;;;5030541;28;20045;-50
2022/07/16 07:44:15;;;;;;;7.93;0.50;;;17.60;99.60;;;;;;5029587;28;20041;-51
2022/07/16 07:46:40;;;;;;;4.68;0.40;;;17.70;98.80;;;;;;5030452;28;20044;-47
2022/07/16 07:49:08;;;;;;;4.35;0.30;;;17.70;98.80;;;;;;5042787;28;20498;-47
2022/07/16 07:51:34;;;;;;;3.60;0.20;;;17.80;99.00;;;;;;5041899;28;20041;-52
2022/07/16 07:53:59;;;;;;;3.53;0.22;;;17.80;98.80;;;;;;5046961;28;20486;-50
2022/07/16 07:56:25;;;;;;;2.15;0.30;;;17.90;98.60;;;;;;5049392;28;20494;-49
2022/07/16 07:58:50;;;;;;;4.18;0.20;;;18.00;98.60;;;;;;5032748;28;20033;-48
2022/07/16 08:01:16;;;;;;;10.52;0.60;;;18.10;98.50;;;;;;5030048;28;20414;-47
2022/07/16 08:03:41;;;;;;;1.92;0.20;;;18.20;98.10;;;;;;5036881;28;20049;-51
2022/07/16 08:06:07;;;;;;;4.95;0.55;;;18.30;97.80;;;;;;5034617;28;20041;-51
2022/07/16 08:08:32;;;;;;;3.40;0.65;;;18.40;97.60;;;;;;5039977;28;20041;-52
2022/07/16 08:10:58;;;;;;;1.73;0.13;;;18.40;97.50;;;;;;5033253;28;20038;-47
2022/07/16 08:13:23;;;;;;;13.20;0.50;;;18.40;97.70;;;;;;5034509;28;20398;-47
2022/07/16 08:15:49;;;;;;;6.95;0.30;;;18.40;97.10;;;;;;5043636;28;20110;-52
2022/07/16 08:18:15;;;;;;;2.72;0.20;;;18.50;96.60;;;;;;5040061;28;20028;-50
2022/07/16 08:20:40;;;;;;;122.78;7.97;;;18.50;96.90;;;;;;5045637;28;20441;-51
2022/07/16 08:23:06;;;;;;;5.50;0.30;;;18.50;96.10;;;;;;5029800;28;20541;-52
2022/07/16 08:25:47;;;;;;;80.00;4.22;;;18.50;94.90;;;;;;5036425;28;20044;-51
2022/07/16 08:28:15;;;;;;;4.50;0.50;;;18.60;94.80;;;;;;5047667;28;20128;-52
2022/07/16 08:30:44;;;;;;;2.63;0.40;;;18.60;94.60;;;;;;5034200;28;20052;-47
2022/07/16 08:33:09;;;;;;;5.95;0.30;;;18.50;93.80;;;;;;5029432;28;20044;-49
2022/07/16 08:35:35;;;;;;;5.30;0.35;;;18.50;94.40;;;;;;5030345;28;20727;-48
2022/07/16 08:38:00;;;;;;;3.35;0.20;;;18.60;94.10;;;;;;5029274;28;20038;-53
2022/07/16 08:40:26;;;;;;;41.00;2.00;;;18.60;94.40;;;;;;5030732;28;20041;-48
2022/07/16 08:42:52;;;;;;;2.95;0.40;;;18.70;93.90;;;;;;5044145;28;20056;-53
2022/07/16 08:45:22;;;;;;;8.57;0.28;;;18.70;94.50;;;;;;5031423;28;20044;-48
2022/07/16 08:47:50;;;;;;;4.05;0.30;;;18.60;94.50;;;;;;5029127;28;20116;-49
2022/07/16 08:50:16;;;;;;;15.80;0.70;;;18.60;94.70;;;;;;5046135;28;20040;-50
2022/07/16 08:52:47;;;;;;;10.05;0.30;;;18.50;95.00;;;;;;5049495;28;20090;-49
2022/07/16 08:55:13;;;;;;;6.05;0.30;;;18.50;94.60;;;;;;5047165;28;20452;-50
2022/07/16 08:57:40;;;;;;;2.92;0.30;;;18.40;94.80;;;;;;5049219;28;20036;-48
2022/07/16 09:00:11;;;;;;;3.33;0.20;;;18.40;94.90;;;;;;5040913;28;20034;-46
2022/07/16 09:02:36;;;;;;;9.52;1.00;;;18.40;94.40;;;;;;5037666;28;20587;-49
2022/07/16 09:05:03;;;;;;;2.88;0.25;;;18.40;94.30;;;;;;5038766;28;20075;-51
2022/07/16 09:07:29;;;;;;;2.20;0.30;;;18.50;93.70;;;;;;5028016;28;20521;-45
2022/07/16 09:09:54;;;;;;;2.03;0.28;;;18.50;93.70;;;;;;5029562;28;20045;-46
2022/07/16 09:12:41;;;;;;;6.90;0.73;;;18.60;93.50;;;;;;5029494;28;20191;-48
2022/07/16 09:15:27;;;;;;;2.97;0.10;;;18.60;92.40;;;;;;5029137;28;20451;-50
2022/07/16 09:18:24;;;;;;;1.65;0.20;;;18.60;92.40;;;;;;5029352;28;20037;-50
2022/07/16 09:20:52;;;;;;;2.78;0.15;;;18.50;92.30;;;;;;5042431;28;20034;-48
2022/07/16 09:23:31;;;;;;;3.47;0.60;;;18.50;93.20;;;;;;5028124;28;20096;-53
2022/07/16 09:26:04;;;;;;;1.83;0.20;;;18.60;93.30;;;;;;5038466;28;20037;-51
2022/07/16 09:28:46;;;;;;;1.30;0.17;;;18.70;92.80;;;;;;5036232;28;20521;-48
2022/07/16 09:31:41;;;;;;;5.82;0.82;;;18.80;92.80;;;;;;5039984;28;20045;-49
2022/07/16 09:34:09;;;;;;;2.17;0.10;;;18.90;92.40;;;;;;5045286;28;20042;-47
2022/07/16 09:36:36;;;;;;;2.35;0.38;;;18.90;91.80;;;;;;5030363;28;20406;-49
2022/07/16 09:39:03;;;;;;;2.35;0.40;;;18.90;91.80;;;;;;5031827;28;20815;-50
2022/07/16 09:41:41;;;;;;;4.13;0.30;;;18.90;92.10;;;;;;5032470;28;20034;-49
2022/07/16 09:44:13;;;;;;;3.05;0.50;;;18.80;91.70;;;;;;5031233;28;20049;-46
2022/07/16 09:46:40;;;;;;;2.85;0.20;;;18.70;92.00;;;;;;5037269;28;20045;-49
2022/07/16 09:49:06;;;;;;;4.68;0.50;;;18.70;92.10;;;;;;5032917;28;20045;-51
2022/07/16 09:51:38;;;;;;;3.90;0.20;;;18.70;92.10;;;;;;5050937;28;20041;-50
2022/07/16 09:54:03;;;;;;;4.82;0.40;;;18.70;92.80;;;;;;5039871;28;20100;-52
2022/07/16 09:56:29;;;;;;;1.65;0.30;;;18.70;92.70;;;;;;5040974;28;20029;-50
2022/07/16 09:58:57;;;;;;;2.38;0.35;;;18.70;92.10;;;;;;5047998;28;20051;-51
2022/07/16 10:01:24;;;;;;;1.08;0.43;;;18.80;92.60;;;;;;5052176;28;20094;-47
2022/07/16 10:03:50;;;;;;;3.03;0.45;;;18.90;92.40;;;;;;5048622;28;20453;-49
2022/07/16 10:06:17;;;;;;;2.35;0.20;;;19.00;92.30;;;;;;5038677;28;20037;-52
2022/07/16 10:08:43;;;;;;;1.55;0.10;;;19.10;92.00;;;;;;5033126;28;20038;-47
2022/07/16 10:11:10;;;;;;;6.88;0.45;;;19.30;91.70;;;;;;5045795;28;20060;-50
2022/07/16 10:13:37;;;;;;;6.60;0.25;;;19.30;91.60;;;;;;5049156;28;20049;-52
2022/07/16 10:16:03;;;;;;;2.40;0.20;;;19.30;90.90;;;;;;5036156;28;20037;-52
2022/07/16 10:18:37;;;;;;;;;;;19.30;91.30;;;;;;5048836;28;20139;-52
2022/07/16 10:21:05;;;;;;;2.53;1.17;;;19.30;91.50;;;;;;5041173;28;20017;-51
2022/07/16 10:23:32;;;;;;;2.65;0.22;;;19.30;91.70;;;;;;5029853;28;20557;-51
2022/07/16 10:25:59;;;;;;;3.85;0.30;;;19.30;90.90;;;;;;5035860;28;20041;-47
2022/07/16 10:28:51;;;;;;;3.97;0.20;;;19.30;91.20;;;;;;5045039;28;20047;-53
2022/07/16 10:34:39;;;;;;;1.30;0.20;;;19.30;92.00;;;;;;5048796;28;20072;-47
2022/07/16 10:37:08;;;;;;;4.20;0.40;;;19.40;91.20;;;;;;5032149;28;20499;-51
2022/07/16 10:39:49;;;;;;;4.88;0.25;;;19.40;91.20;;;;;;5036724;28;20430;-50
2022/07/16 10:42:17;;;;;;;4.50;0.52;;;19.50;91.40;;;;;;5042989;28;20037;-49
2022/07/16 10:44:48;;;;;;;2.90;0.25;;;19.50;91.10;;;;;;5050581;28;20044;-47
2022/07/16 10:47:15;;;;;;;3.88;0.28;;;19.40;91.00;;;;;;5051084;28;20052;-51
2022/07/16 10:49:41;;;;;;;4.25;0.30;;;19.50;91.60;;;;;;5051372;28;20049;-47
2022/07/16 10:52:10;;;;;;;2.80;0.43;;;19.50;91.70;;;;;;5046076;28;20494;-50
2022/07/16 10:54:37;;;;;;;4.70;0.38;;;19.60;91.50;;;;;;5030283;28;20073;-47
2022/07/16 10:57:06;;;;;;;2.70;0.17;;;19.60;91.90;;;;;;5039814;28;20029;-46
2022/07/16 10:59:37;;;;;;;2.42;0.30;;;19.80;92.00;;;;;;5031153;28;20557;-47
2022/07/16 11:02:09;;;;;;;6.03;0.40;;;19.90;91.40;;;;;;5031660;28;20482;-47
2022/07/16 11:04:48;;;;;;;3.53;0.20;;;20.00;91.00;;;;;;5030200;28;20065;-51
2022/07/16 11:07:19;;;;;;;4.85;0.40;;;19.90;90.90;;;;;;5044540;28;20041;-53
2022/07/16 11:09:50;;;;;;;2.97;0.15;;;19.90;91.60;;;;;;5050571;28;20056;-48
2022/07/16 11:12:25;;;;;;;8.48;0.35;;;20.00;91.80;;;;;;5044918;28;20041;-51
2022/07/16 11:14:53;;;;;;;5.45;0.47;;;20.00;92.10;;;;;;5049000;28;20305;-48
2022/07/16 11:17:24;;;;;;;3.60;0.98;;;19.90;92.20;;;;;;5035029;28;20116;-51
2022/07/16 11:19:52;;;;;;;6.82;0.50;;;20.00;92.80;;;;;;5049980;28;20040;-50
2022/07/16 11:22:20;;;;;;;3.42;0.60;;;20.10;92.10;;;;;;5035068;28;20545;-47
2022/07/16 11:24:52;;;;;;;1.27;0.20;;;20.10;92.80;;;;;;5031377;28;20519;-49
2022/07/16 11:27:18;;;;;;;3.08;0.55;;;20.20;92.50;;;;;;5030290;28;20041;-47
2022/07/16 11:29:43;;;;;;;1.35;0.20;;;20.30;91.20;;;;;;5034424;28;20663;-47
2022/07/16 11:32:15;;;;;;;;;;;20.30;91.00;;;;;;5039551;28;20101;-47
2022/07/16 11:34:41;;;;;;;4.07;0.15;;;20.40;90.70;;;;;;5048614;28;20443;-46
2022/07/16 11:37:07;;;;;;;1.10;0.30;;;20.30;91.00;;;;;;5042007;28;20033;-51
2022/07/16 11:39:33;;;;;;;;;;;20.40;90.80;;;;;;5030864;28;20041;-49
2022/07/16 11:41:59;;;;;;;1.60;0.20;;;20.40;89.60;;;;;;5039991;28;20286;-47
2022/07/16 11:44:29;;;;;;;3.72;0.52;;;20.30;90.00;;;;;;5031153;28;20030;-48
2022/07/16 11:47:00;;;;;;;2.47;0.10;;;20.30;90.10;;;;;;5029849;28;20045;-51
2022/07/16 11:49:34;;;;;;;6.57;0.22;;;20.20;89.40;;;;;;5045687;28;20041;-49
2022/07/16 11:52:02;;;;;;;2.30;0.32;;;20.30;88.50;;;;;;5043059;28;20044;-48
2022/07/16 11:54:29;;;;;;;2.35;0.20;;;20.40;89.20;;;;;;5038266;28;20040;-48
2022/07/16 11:56:56;;;;;;;1.23;0.20;;;20.40;88.60;;;;;;5041945;28;20498;-52
2022/07/16 11:59:27;;;;;;;3.80;0.20;;;20.50;88.30;;;;;;5030728;28;20033;-51
2022/07/16 12:02:05;;;;;;;2.45;0.80;;;20.50;87.90;;;;;;5036558;28;20041;-48
2022/07/16 12:04:35;;;;;;;3.20;0.20;;;20.50;86.20;;;;;;5047602;28;20110;-51
2022/07/16 12:07:02;;;;;;;7.03;0.40;;;20.50;87.70;;;;;;5040755;28;20040;-49
2022/07/16 12:09:50;;;;;;;3.88;0.30;;;20.50;89.00;;;;;;5042183;28;20025;-49
2022/07/16 12:12:19;;;;;;;4.03;0.40;;;20.50;87.90;;;;;;5039561;28;20045;-53
2022/07/16 12:14:50;;;;;;;4.78;0.47;;;20.50;86.90;;;;;;5041404;28;20036;-50
2022/07/16 12:17:21;;;;;;;1.00;0.30;;;20.60;86.30;;;;;;5035998;28;20083;-51
2022/07/16 12:20:05;;;;;;;3.60;0.43;;;20.70;85.50;;;;;;5039059;28;20041;-52
2022/07/16 12:22:51;;;;;;;2.67;0.40;;;20.80;85.30;;;;;;5043255;28;20044;-52
2022/07/16 12:25:19;;;;;;;4.55;0.50;;;20.70;85.10;;;;;;5037525;28;20069;-48
2022/07/16 12:27:57;;;;;;;2.78;0.20;;;20.70;87.80;;;;;;5038708;28;20049;-50
2022/07/16 12:30:35;;;;;;;4.15;0.70;;;20.70;85.80;;;;;;5039566;28;20042;-47
2022/07/16 12:33:03;;;;;;;7.63;0.40;;;20.60;86.00;;;;;;5036705;28;20414;-48
2022/07/16 12:35:48;;;;;;;4.60;0.20;;;20.60;85.40;;;;;;5039546;28;20079;-49
2022/07/16 12:38:55;;;;;;;3.15;0.57;;;20.50;85.00;;;;;;5037966;28;20033;-47
2022/07/16 12:41:22;;;;;;;6.38;0.38;;;20.40;85.10;;;;;;5038444;28;20041;-47
2022/07/16 12:43:53;;;;;;;2.30;0.52;;;20.40;87.50;;;;;;5037042;28;20515;-48
2022/07/16 12:46:21;;;;;;;3.55;0.30;;;20.50;86.80;;;;;;5038198;28;20494;-52
2022/07/16 12:48:57;;;;;;;2.05;0.50;;;20.50;86.20;;;;;;5038098;28;20211;-52
2022/07/16 12:51:24;;;;;;;2.83;0.20;;;20.50;84.90;;;;;;5039218;28;20398;-44
2022/07/16 12:53:50;;;;;;;1.88;0.20;;;20.50;86.00;;;;;;5036324;28;20094;-49
2022/07/16 12:59:03;;;;;;;4.45;0.40;;;20.50;86.50;;;;;;5038683;28;20398;-47
2022/07/16 13:01:30;;;;;;;2.72;0.20;;;20.50;86.80;;;;;;5038613;28;20037;-47
2022/07/16 13:03:56;;;;;;;1.60;0.32;;;20.50;87.30;;;;;;5035997;28;20582;-49